N588SA LSZA-LOWS
Flight info
| Callsign | N588SA |
|---|---|
| Flight time | N/A |
| Altitude | 24000 |
| Route | LEGLO DCT TAGIP DCT BRENO M726 KOGOL N871 BADVI L725 UNKEN UNKEN2R |
| Aircraft | BE9L/L-SBGRY/S |
Departure
| Time | 2026-04-20 19:35 |
|---|---|
| Airport | Lugano Airport (LSZA) |
Arrival
| Time | N/A |
|---|---|
| Airport | Salzburg Airport (LOWS) |
| Time | Latitude | Longitude | Altitude | Speed | Heading |
|---|---|---|---|---|---|
| 2026-04-20 19:23 | 46.00194 | 8.90756 | 899 ft | 0 kts | 19° |
| 2026-04-20 19:29 | 46.00195 | 8.90757 | 899 ft | 0 kts | 19° |
| 2026-04-20 19:30 | 46.00202 | 8.90763 | 899 ft | 5 kts | 40° |
| 2026-04-20 19:30 | 46.00249 | 8.90853 | 899 ft | 12 kts | 37° |
| 2026-04-20 19:31 | 46.00309 | 8.90888 | 899 ft | 12 kts | 20° |
| 2026-04-20 19:31 | 46.00401 | 8.90933 | 899 ft | 10 kts | 18° |
| 2026-04-20 19:31 | 46.00448 | 8.90957 | 899 ft | 2 kts | 27° |
| 2026-04-20 19:31 | 46.00458 | 8.90970 | 899 ft | 1 kts | 59° |
| 2026-04-20 19:32 | 46.00460 | 8.90976 | 899 ft | 0 kts | 83° |
| 2026-04-20 19:33 | 46.00460 | 8.90980 | 899 ft | 4 kts | 87° |
| 2026-04-20 19:33 | 46.00455 | 8.91071 | 902 ft | 12 kts | 34° |
| 2026-04-20 19:33 | 46.00577 | 8.91133 | 902 ft | 26 kts | 19° |
| 2026-04-20 19:34 | 46.00781 | 8.91232 | 897 ft | 32 kts | 18° |
| 2026-04-20 19:34 | 46.00979 | 8.91322 | 896 ft | 20 kts | 15° |
| 2026-04-20 19:34 | 46.01040 | 8.91364 | 898 ft | 5 kts | 192° |
| 2026-04-20 19:34 | 46.00940 | 8.91310 | 895 ft | 31 kts | 198° |
| 2026-04-20 19:35 | 46.00565 | 8.91129 | 902 ft | 84 kts | 199° |
| 2026-04-20 19:35 | 45.99874 | 8.90787 | 1019 ft | 118 kts | 199° |
| 2026-04-20 19:35 | 45.99087 | 8.90382 | 1481 ft | 122 kts | 199° |
| 2026-04-20 19:35 | 45.98220 | 8.89847 | 1674 ft | 148 kts | 206° |
| 2026-04-20 19:36 | 45.97280 | 8.89177 | 2083 ft | 157 kts | 206° |
| 2026-04-20 19:36 | 45.96287 | 8.88501 | 2550 ft | 158 kts | 205° |
| 2026-04-20 19:36 | 45.95288 | 8.87844 | 3051 ft | 157 kts | 204° |
| 2026-04-20 19:36 | 45.94361 | 8.87239 | 3802 ft | 138 kts | 204° |
| 2026-04-20 19:37 | 45.93477 | 8.86682 | 4312 ft | 140 kts | 198° |
| 2026-04-20 19:37 | 45.92514 | 8.86533 | 4834 ft | 141 kts | 175° |
| 2026-04-20 19:37 | 45.91542 | 8.86776 | 5294 ft | 143 kts | 178° |
| 2026-04-20 19:37 | 45.90566 | 8.86554 | 5797 ft | 143 kts | 200° |
| 2026-04-20 19:38 | 45.89628 | 8.86059 | 6282 ft | 147 kts | 200° |
| 2026-04-20 19:38 | 45.88590 | 8.85516 | 6503 ft | 167 kts | 201° |
| 2026-04-20 19:38 | 45.87455 | 8.85228 | 6961 ft | 168 kts | 175° |
| 2026-04-20 19:38 | 45.86331 | 8.85713 | 7395 ft | 170 kts | 152° |
| 2026-04-20 19:39 | 45.85273 | 8.86520 | 7863 ft | 174 kts | 153° |
| 2026-04-20 19:39 | 45.84198 | 8.87331 | 8363 ft | 176 kts | 153° |
| 2026-04-20 19:39 | 45.83109 | 8.88155 | 8857 ft | 178 kts | 153° |
| 2026-04-20 19:39 | 45.82012 | 8.88986 | 9364 ft | 179 kts | 153° |
| 2026-04-20 19:40 | 45.81286 | 8.89534 | 9722 ft | 178 kts | 153° |
| 2026-04-20 19:40 | 45.80178 | 8.90372 | 10190 ft | 181 kts | 153° |
| 2026-04-20 19:40 | 45.78686 | 8.91499 | 10798 ft | 184 kts | 153° |
| 2026-04-20 19:40 | 45.77543 | 8.92362 | 11264 ft | 187 kts | 154° |
| 2026-04-20 19:41 | 45.76778 | 8.92940 | 11575 ft | 188 kts | 154° |
| 2026-04-20 19:41 | 45.75617 | 8.93886 | 12046 ft | 192 kts | 141° |
| 2026-04-20 19:41 | 45.74863 | 8.95447 | 12519 ft | 195 kts | 108° |
| 2026-04-20 19:41 | 45.74618 | 8.97330 | 12956 ft | 197 kts | 96° |
| 2026-04-20 19:42 | 45.74474 | 8.99310 | 13420 ft | 197 kts | 82° |
| 2026-04-20 19:42 | 45.74741 | 9.01207 | 13842 ft | 198 kts | 71° |
| 2026-04-20 19:42 | 45.75060 | 9.03142 | 14269 ft | 201 kts | 74° |
| 2026-04-20 19:42 | 45.75311 | 9.05125 | 14695 ft | 204 kts | 76° |
| 2026-04-20 19:43 | 45.75622 | 9.07855 | 15216 ft | 211 kts | 76° |
| 2026-04-20 19:43 | 45.75782 | 9.09236 | 15503 ft | 212 kts | 76° |
| 2026-04-20 19:43 | 45.76028 | 9.11334 | 15949 ft | 215 kts | 76° |
| 2026-04-20 19:43 | 45.76278 | 9.13459 | 16386 ft | 218 kts | 75° |
| 2026-04-20 19:44 | 45.76529 | 9.15611 | 16814 ft | 220 kts | 75° |
| 2026-04-20 19:44 | 45.76783 | 9.17788 | 17253 ft | 223 kts | 75° |
| 2026-04-20 19:44 | 45.77040 | 9.19988 | 17672 ft | 225 kts | 75° |
| 2026-04-20 19:44 | 45.77299 | 9.22215 | 18093 ft | 228 kts | 75° |
| 2026-04-20 19:45 | 45.77560 | 9.24466 | 18446 ft | 230 kts | 75° |
| 2026-04-20 19:45 | 45.77823 | 9.26743 | 18806 ft | 232 kts | 75° |
| 2026-04-20 19:45 | 45.78424 | 9.28769 | 19164 ft | 213 kts | 34° |
| 2026-04-20 19:45 | 45.79541 | 9.30114 | 19497 ft | 213 kts | 31° |
| 2026-04-20 19:46 | 45.80593 | 9.31640 | 19894 ft | 218 kts | 39° |
| 2026-04-20 19:46 | 45.81568 | 9.33314 | 20260 ft | 221 kts | 41° |
| 2026-04-20 19:46 | 45.82547 | 9.35017 | 20617 ft | 222 kts | 40° |
| 2026-04-20 19:46 | 45.83544 | 9.36712 | 20997 ft | 223 kts | 39° |
| 2026-04-20 19:47 | 45.84540 | 9.38390 | 21372 ft | 225 kts | 39° |
| 2026-04-20 19:47 | 45.85567 | 9.40128 | 21771 ft | 226 kts | 39° |
| 2026-04-20 19:47 | 45.86568 | 9.41828 | 22164 ft | 227 kts | 39° |
| 2026-04-20 19:47 | 45.87592 | 9.43566 | 22570 ft | 229 kts | 39° |
| 2026-04-20 19:48 | 45.88623 | 9.45316 | 22923 ft | 231 kts | 40° |
| 2026-04-20 19:48 | 45.89664 | 9.47086 | 23260 ft | 231 kts | 39° |
| 2026-04-20 19:48 | 45.90709 | 9.48860 | 23561 ft | 233 kts | 39° |
| 2026-04-20 19:48 | 45.91814 | 9.50554 | 23810 ft | 235 kts | 34° |
| 2026-04-20 19:49 | 45.93001 | 9.52259 | 23896 ft | 248 kts | 35° |
| 2026-04-20 19:49 | 45.94216 | 9.54109 | 23921 ft | 261 kts | 37° |
| 2026-04-20 19:49 | 45.95462 | 9.56062 | 23927 ft | 269 kts | 38° |
| 2026-04-20 19:49 | 45.96748 | 9.58058 | 23942 ft | 275 kts | 37° |
| 2026-04-20 19:50 | 45.98072 | 9.60094 | 23919 ft | 281 kts | 37° |
| 2026-04-20 19:50 | 45.99420 | 9.62170 | 23916 ft | 285 kts | 38° |
| 2026-04-20 19:50 | 46.00770 | 9.64264 | 23926 ft | 287 kts | 37° |
| 2026-04-20 19:50 | 46.02132 | 9.66366 | 23925 ft | 286 kts | 37° |
| 2026-04-20 19:51 | 46.03493 | 9.68471 | 23928 ft | 288 kts | 37° |
| 2026-04-20 19:51 | 46.04863 | 9.70590 | 23927 ft | 290 kts | 38° |
| 2026-04-20 19:51 | 46.06236 | 9.72721 | 23935 ft | 291 kts | 38° |
| 2026-04-20 19:51 | 46.07620 | 9.74867 | 23941 ft | 292 kts | 37° |
| 2026-04-20 19:52 | 46.08994 | 9.76997 | 23945 ft | 291 kts | 38° |
| 2026-04-20 19:52 | 46.10374 | 9.79140 | 23941 ft | 291 kts | 38° |
| 2026-04-20 19:52 | 46.11758 | 9.81290 | 23936 ft | 293 kts | 39° |
| 2026-04-20 19:52 | 46.13129 | 9.83425 | 23935 ft | 289 kts | 38° |
| 2026-04-20 19:53 | 46.14498 | 9.85557 | 23978 ft | 290 kts | 37° |
| 2026-04-20 19:53 | 46.15876 | 9.87700 | 23958 ft | 292 kts | 37° |
| 2026-04-20 19:53 | 46.17259 | 9.89853 | 23955 ft | 292 kts | 38° |
| 2026-04-20 19:53 | 46.18629 | 9.91994 | 23958 ft | 291 kts | 37° |
| 2026-04-20 19:54 | 46.20001 | 9.94136 | 23965 ft | 290 kts | 37° |
| 2026-04-20 19:54 | 46.21374 | 9.96282 | 23964 ft | 291 kts | 37° |
| 2026-04-20 19:54 | 46.22746 | 9.98427 | 23967 ft | 290 kts | 37° |
| 2026-04-20 19:54 | 46.24107 | 10.00555 | 23961 ft | 286 kts | 38° |
| 2026-04-20 19:55 | 46.25442 | 10.02649 | 23976 ft | 280 kts | 37° |
| 2026-04-20 19:55 | 46.26769 | 10.04732 | 23977 ft | 283 kts | 37° |
| 2026-04-20 19:55 | 46.28114 | 10.06832 | 23971 ft | 285 kts | 37° |
| 2026-04-20 19:55 | 46.29462 | 10.08947 | 23985 ft | 287 kts | 37° |
| 2026-04-20 19:56 | 46.30817 | 10.11078 | 23987 ft | 288 kts | 37° |
| 2026-04-20 19:56 | 46.32175 | 10.13213 | 23988 ft | 288 kts | 37° |
| 2026-04-20 19:56 | 46.33524 | 10.15343 | 23982 ft | 288 kts | 38° |
| 2026-04-20 19:56 | 46.34865 | 10.17452 | 23988 ft | 288 kts | 37° |
| 2026-04-20 19:57 | 46.36230 | 10.19596 | 23992 ft | 289 kts | 37° |
| 2026-04-20 19:57 | 46.37591 | 10.21747 | 23989 ft | 289 kts | 37° |
| 2026-04-20 19:57 | 46.38945 | 10.23889 | 23996 ft | 288 kts | 37° |
| 2026-04-20 19:57 | 46.40302 | 10.26031 | 24000 ft | 289 kts | 37° |
| 2026-04-20 19:58 | 46.41668 | 10.28187 | 24001 ft | 291 kts | 37° |
| 2026-04-20 19:58 | 46.43042 | 10.30358 | 24004 ft | 293 kts | 37° |
| 2026-04-20 19:58 | 46.44417 | 10.32539 | 23991 ft | 292 kts | 37° |
| 2026-04-20 19:58 | 46.45780 | 10.34706 | 23990 ft | 291 kts | 37° |
| 2026-04-20 19:59 | 46.47140 | 10.36864 | 23990 ft | 290 kts | 37° |
| 2026-04-20 19:59 | 46.48509 | 10.39030 | 23993 ft | 292 kts | 37° |
| 2026-04-20 19:59 | 46.49878 | 10.41204 | 24018 ft | 293 kts | 37° |
| 2026-04-20 19:59 | 46.51259 | 10.43408 | 24001 ft | 295 kts | 37° |
| 2026-04-20 20:00 | 46.52643 | 10.45605 | 24003 ft | 294 kts | 37° |
| 2026-04-20 20:00 | 46.54003 | 10.47769 | 23995 ft | 293 kts | 37° |
| 2026-04-20 20:00 | 46.55386 | 10.49977 | 23989 ft | 291 kts | 36° |
| 2026-04-20 20:00 | 46.56743 | 10.52143 | 23994 ft | 289 kts | 37° |
| 2026-04-20 20:01 | 46.58095 | 10.54311 | 24017 ft | 288 kts | 36° |
| 2026-04-20 20:01 | 46.59454 | 10.56465 | 24019 ft | 292 kts | 36° |
| 2026-04-20 20:01 | 46.60830 | 10.58657 | 24021 ft | 294 kts | 37° |
| 2026-04-20 20:01 | 46.62202 | 10.60861 | 24022 ft | 294 kts | 37° |
| 2026-04-20 20:02 | 46.63580 | 10.63074 | 24020 ft | 294 kts | 37° |
| 2026-04-20 20:02 | 46.64956 | 10.65278 | 24023 ft | 294 kts | 37° |
| 2026-04-20 20:02 | 46.66323 | 10.67470 | 24031 ft | 293 kts | 37° |
| 2026-04-20 20:02 | 46.67695 | 10.69669 | 24022 ft | 292 kts | 37° |
| 2026-04-20 20:03 | 46.69045 | 10.71840 | 24035 ft | 294 kts | 36° |